Time;durP1;ratioP1;P1;durP2;ratioP2;P2;SDS_P1;SDS_P2;PMS_P1;PMS_P2;Temp;Humidity;BMP_temperature;BMP_pressure;BME280_temperature;BME280_humidity;BME280_pressure;Samples;Min_cycle;Max_cycle;Signal;HPM_P1;HPM_P2
2022/11/22 00:04:55;;;;;;;0.47;0.47;;;;;;;5.88;100.00;98961.81;10583733;28;20031;-68
2022/11/22 00:09:55;;;;;;;0.50;0.50;;;;;;;5.85;100.00;98963.06;10567770;28;20036;-68
2022/11/22 00:14:56;;;;;;;14.55;4.40;;;;;;;5.79;100.00;98953.97;10584441;28;20028;-68
2022/11/22 00:19:56;;;;;;;0.50;0.50;;;;;;;5.79;100.00;98959.34;10583487;28;20036;-67
2022/11/22 00:24:57;;;;;;;0.60;0.60;;;;;;;5.79;100.00;98963.91;10567912;28;20036;-68
2022/11/22 00:29:57;;;;;;;0.50;0.50;;;;;;;5.85;100.00;98965.75;10566008;28;20556;-67
2022/11/22 00:34:57;;;;;;;0.90;0.90;;;;;;;5.97;100.00;98966.75;10584512;28;20040;-67
2022/11/22 00:39:58;;;;;;;3.10;2.25;;;;;;;6.14;100.00;98971.59;10566430;28;20035;-67
2022/11/22 00:44:58;;;;;;;0.55;0.55;;;;;;;6.18;100.00;98968.25;10583069;28;20036;-68
2022/11/22 00:49:58;;;;;;;0.50;0.50;;;;;;;6.11;100.00;98964.78;10584556;28;20039;-67
2022/11/22 00:54:59;;;;;;;3.92;3.80;;;;;;;5.99;100.00;98971.88;10585091;28;20108;-68
2022/11/22 00:59:59;;;;;;;0.52;0.52;;;;;;;5.89;100.00;98968.81;10583959;28;20035;-68
2022/11/22 01:05:00;;;;;;;1.08;1.08;;;;;;;5.82;100.00;98969.66;10583681;28;20486;-69
2022/11/22 01:10:00;;;;;;;0.40;0.40;;;;;;;5.77;100.00;98966.78;10583484;28;20093;-68
2022/11/22 01:15:01;;;;;;;0.45;0.45;;;;;;;5.75;100.00;98962.69;10582946;28;20038;-68
2022/11/22 01:20:01;;;;;;;0.45;0.45;;;;;;;5.82;100.00;98958.09;10583606;28;20423;-68
2022/11/22 01:25:01;;;;;;;0.60;0.60;;;;;;;5.85;100.00;98967.59;10563665;28;20035;-69
2022/11/22 01:30:02;;;;;;;0.60;0.60;;;;;;;5.77;100.00;98977.53;10582258;28;20085;-68
2022/11/22 01:35:03;;;;;;;0.40;0.40;;;;;;;5.78;100.00;98973.00;10583113;28;20035;-68
2022/11/22 01:40:04;;;;;;;0.40;0.40;;;;;;;5.70;100.00;98966.00;10546686;28;20089;-69
2022/11/22 01:45:29;;;;;;;0.50;0.50;;;;;;;5.73;100.00;98962.88;10580985;28;20129;-68
2022/11/22 01:50:32;;;;;;;0.50;0.50;;;;;;;5.70;100.00;98970.56;10583350;28;20071;-68
2022/11/22 01:55:32;;;;;;;0.70;0.70;;;;;;;5.68;100.00;98968.09;10563871;28;20046;-69
2022/11/22 02:00:33;;;;;;;0.50;0.50;;;;;;;5.55;100.00;98974.34;10565839;28;20035;-70
2022/11/22 02:05:33;;;;;;;0.40;0.40;;;;;;;5.51;100.00;98977.66;10584861;28;20031;-69
2022/11/22 02:10:36;;;;;;;0.50;0.50;;;;;;;5.46;100.00;98993.59;10564162;28;20455;-70
2022/11/22 02:15:36;;;;;;;11.50;6.22;;;;;;;5.42;100.00;98986.97;10582693;28;20063;-69
2022/11/22 02:20:37;;;;;;;2.95;1.30;;;;;;;5.34;100.00;98993.41;10563462;28;20027;-69
2022/11/22 02:25:40;;;;;;;2.83;2.70;;;;;;;5.25;100.00;99002.72;10581961;28;20063;-70
2022/11/22 02:30:40;;;;;;;0.47;0.47;;;;;;;5.28;100.00;98994.22;10581251;28;20523;-69
2022/11/22 02:35:41;;;;;;;0.50;0.50;;;;;;;5.19;100.00;99001.69;10582149;28;20052;-69
2022/11/22 02:40:46;;;;;;;19.08;4.93;;;;;;;5.22;100.00;99001.25;10571002;28;20040;-70
2022/11/22 02:45:47;;;;;;;22.15;6.32;;;;;;;5.24;100.00;99007.25;10571055;28;20383;-70
2022/11/22 02:50:47;;;;;;;7.05;3.35;;;;;;;5.32;100.00;99012.38;10555663;28;20028;-70
2022/11/22 02:55:48;;;;;;;12.68;4.22;;;;;;;5.35;100.00;99003.91;10588422;28;20052;-70
2022/11/22 03:00:48;;;;;;;3.70;2.90;;;;;;;5.54;100.00;99017.50;10590989;28;20112;-70
2022/11/22 03:05:48;;;;;;;19.90;2.63;;;;;;;5.60;100.00;99014.78;10588509;28;20130;-71
2022/11/22 03:10:49;;;;;;;10.18;4.40;;;;;;;5.59;100.00;99017.69;10571808;28;20027;-70
2022/11/22 03:15:49;;;;;;;7.20;3.47;;;;;;;5.57;100.00;99025.13;10587898;28;20036;-70
2022/11/22 03:20:49;;;;;;;7.70;3.00;;;;;;;5.45;100.00;99024.94;10588413;28;20037;-70
2022/11/22 03:25:50;;;;;;;7.95;4.50;;;;;;;5.32;100.00;99027.66;10588208;28;20425;-70
2022/11/22 03:30:50;;;;;;;7.40;2.90;;;;;;;5.24;100.00;99034.09;10587114;28;20032;-70
2022/11/22 03:35:57;;;;;;;7.85;2.13;;;;;;;5.25;100.00;99026.84;10586264;28;20466;-70
2022/11/22 03:40:57;;;;;;;11.18;2.70;;;;;;;5.07;100.00;99022.97;10586354;28;20364;-70
2022/11/22 03:45:57;;;;;;;14.95;3.95;;;;;;;5.03;100.00;99024.41;10569798;28;20036;-70
2022/11/22 03:51:04;;;;;;;3.20;2.03;;;;;;;4.95;100.00;99029.16;10568420;28;20483;-70
2022/11/22 03:56:05;;;;;;;11.48;3.03;;;;;;;4.87;100.00;99024.81;10585578;28;20491;-70
2022/11/22 04:01:05;;;;;;;14.00;2.78;;;;;;;4.84;100.00;99044.81;10585092;28;20035;-70
2022/11/22 04:06:06;;;;;;;4.35;2.40;;;;;;;4.81;100.00;99044.41;10567962;28;20429;-70
2022/11/22 04:11:06;;;;;;;10.93;2.33;;;;;;;4.82;100.00;99049.59;10585324;28;20039;-70
2022/11/22 04:16:06;;;;;;;11.43;3.00;;;;;;;4.81;100.00;99058.66;10567514;28;20455;-70
2022/11/22 04:26:26;;;;;;;14.10;2.92;;;;;;;4.94;100.00;99057.00;10585901;28;20035;-70
2022/11/22 04:36:45;;;;;;;9.95;4.28;;;;;;;5.16;100.00;99066.50;10584426;28;20035;-70
2022/11/22 04:41:46;;;;;;;7.07;3.95;;;;;;;5.19;100.00;99068.75;10583326;28;20077;-70
2022/11/22 04:46:46;;;;;;;4.30;2.60;;;;;;;5.19;100.00;99073.31;10585988;28;20118;-70
2022/11/22 04:57:06;;;;;;;5.05;3.72;;;;;;;5.27;100.00;99070.41;10584609;28;20055;-69
2022/11/22 05:02:06;;;;;;;15.98;4.97;;;;;;;5.28;100.00;99070.19;10582451;28;20028;-69
2022/11/22 05:07:06;;;;;;;12.93;3.33;;;;;;;5.19;100.00;99071.44;10583178;28;20031;-69
2022/11/22 05:12:07;;;;;;;7.38;3.47;;;;;;;5.23;100.00;99077.22;10584050;28;20036;-69
2022/11/22 05:17:07;;;;;;;9.15;4.78;;;;;;;5.18;100.00;99077.03;10583149;28;20539;-69
2022/11/22 05:22:08;;;;;;;7.18;4.40;;;;;;;5.15;100.00;99082.81;10566461;28;20036;-69
2022/11/22 05:27:08;;;;;;;6.68;3.60;;;;;;;5.20;100.00;99073.13;10564738;28;20020;-69
2022/11/22 05:32:08;;;;;;;6.25;4.13;;;;;;;5.18;100.00;99075.16;10516023;28;20083;-68
2022/11/22 05:37:09;;;;;;;14.35;3.83;;;;;;;5.17;100.00;99072.69;10583316;28;20097;-69
2022/11/22 05:42:09;;;;;;;7.05;3.15;;;;;;;5.09;100.00;99082.59;10582824;28;20487;-69
2022/11/22 05:47:10;;;;;;;18.58;4.10;;;;;;;5.04;100.00;99084.25;10581733;28;20108;-70
2022/11/22 05:52:10;;;;;;;7.57;3.13;;;;;;;5.04;100.00;99084.25;10581227;28;20532;-68
2022/11/22 05:57:10;;;;;;;8.82;4.45;;;;;;;5.01;100.00;99082.81;10581509;28;20142;-68
2022/11/22 06:02:11;;;;;;;9.70;5.22;;;;;;;4.97;100.00;99073.50;10546731;28;20036;-68
2022/11/22 06:07:11;;;;;;;4.30;3.97;;;;;;;4.97;100.00;99067.31;10566794;28;20443;-68
2022/11/22 06:12:12;;;;;;;9.18;5.63;;;;;;;4.86;100.00;99071.47;10564109;28;20031;-68
2022/11/22 06:17:12;;;;;;;15.82;6.15;;;;;;;4.86;100.00;99072.28;10572940;28;20039;-69
2022/11/22 06:22:12;;;;;;;6.78;5.88;;;;;;;4.85;100.00;99059.91;10589653;28;20446;-69
2022/11/22 06:27:13;;;;;;;9.82;5.13;;;;;;;4.86;100.00;99058.03;10571568;28;20039;-68
2022/11/22 06:32:13;;;;;;;8.60;5.65;;;;;;;4.83;100.00;99077.22;10589665;28;20161;-68
2022/11/22 06:37:15;;;;;;;6.72;5.15;;;;;;;4.84;100.00;99062.78;10532341;28;20048;-69
2022/11/22 06:42:15;;;;;;;7.75;6.15;;;;;;;4.92;100.00;99064.44;10589573;28;20451;-69
2022/11/22 06:47:16;;;;;;;4.85;4.53;;;;;;;5.00;100.00;99072.28;10554156;28;20063;-68
2022/11/22 06:52:16;;;;;;;5.70;5.20;;;;;;;5.05;100.00;99083.22;10587552;28;20031;-68
2022/11/22 06:57:19;;;;;;;5.88;4.93;;;;;;;5.05;100.00;99070.63;10571071;28;20063;-68
2022/11/22 07:02:19;;;;;;;12.55;5.80;;;;;;;5.09;100.00;99081.78;10587412;28;20046;-68
2022/11/22 07:07:20;;;;;;;11.50;5.82;;;;;;;5.11;100.00;99074.34;10570681;28;20360;-69
2022/11/22 07:12:20;;;;;;;10.50;5.57;;;;;;;5.12;100.00;99068.75;10570218;28;20031;-69
2022/11/22 07:17:21;;;;;;;17.30;6.68;;;;;;;5.15;100.00;99075.59;10569864;28;20413;-68
2022/11/22 07:22:21;;;;;;;10.10;5.10;;;;;;;5.29;100.00;99082.56;10587580;28;20120;-69
2022/11/22 07:27:22;;;;;;;15.15;4.88;;;;;;;5.28;100.00;99070.19;10587342;28;20031;-68
2022/11/22 07:32:22;;;;;;;10.10;4.55;;;;;;;5.32;100.00;99073.28;10587403;28;20035;-68
2022/11/22 07:37:23;;;;;;;5.93;4.13;;;;;;;5.27;100.00;99090.03;10568475;28;20491;-68
2022/11/22 07:42:23;;;;;;;7.82;4.60;;;;;;;5.28;100.00;99094.34;10567849;28;20054;-69
2022/11/22 07:47:23;;;;;;;7.30;3.58;;;;;;;5.33;100.00;99094.56;10567948;28;20091;-69
2022/11/22 07:52:24;;;;;;;6.20;4.22;;;;;;;5.29;100.00;99097.84;10567586;28;20052;-69
2022/11/22 07:57:24;;;;;;;8.18;5.40;;;;;;;5.41;100.00;99111.50;10586178;28;20087;-69
2022/11/22 08:02:25;;;;;;;6.88;3.55;;;;;;;5.60;100.00;99095.34;10586061;28;20049;-69
2022/11/22 08:07:25;;;;;;;4.13;3.83;;;;;;;5.54;100.00;99100.72;10568103;28;20020;-69
2022/11/22 08:12:26;;;;;;;4.60;3.17;;;;;;;5.51;100.00;99109.19;10586443;28;20043;-69
2022/11/22 08:17:26;;;;;;;5.15;4.32;;;;;;;5.50;100.00;99110.25;10567351;28;20027;-69
2022/11/22 08:22:27;;;;;;;5.65;4.10;;;;;;;5.53;100.00;99110.66;10585496;28;20110;-68
2022/11/22 08:27:27;;;;;;;15.57;4.68;;;;;;;5.62;100.00;99115.81;10585145;28;20034;-68
2022/11/22 08:32:27;;;;;;;5.90;3.15;;;;;;;5.55;100.00;99110.41;10564631;28;20115;-67
2022/11/22 08:37:28;;;;;;;5.90;4.07;;;;;;;5.52;100.00;99135.00;10583026;28;20050;-67
2022/11/22 08:42:28;;;;;;;6.88;4.88;;;;;;;5.57;100.00;99125.28;10566207;28;20546;-68
2022/11/22 08:47:29;;;;;;;7.60;5.30;;;;;;;5.65;100.00;99136.84;10565812;28;20085;-67
2022/11/22 08:52:29;;;;;;;12.25;4.60;;;;;;;5.70;100.00;99139.75;10583794;28;20356;-68
2022/11/22 08:57:30;;;;;;;8.70;5.50;;;;;;;5.77;100.00;99145.91;10584966;28;20048;-68
2022/11/22 09:02:30;;;;;;;5.68;4.28;;;;;;;5.73;100.00;99142.00;10583381;28;20028;-68
2022/11/22 09:07:30;;;;;;;10.10;4.60;;;;;;;5.91;100.00;99147.56;10548653;28;20403;-68
2022/11/22 09:12:31;;;;;;;6.22;4.20;;;;;;;5.86;100.00;99147.34;10584871;28;20035;-68
2022/11/22 09:17:31;;;;;;;6.35;3.55;;;;;;;5.95;100.00;99148.00;10580850;28;20038;-68
2022/11/22 09:22:32;;;;;;;10.73;3.97;;;;;;;5.96;100.00;99160.38;10583293;28;20039;-68
2022/11/22 09:27:33;;;;;;;6.63;4.07;;;;;;;6.00;100.00;99156.25;10581989;28;20106;-68
2022/11/22 09:32:33;;;;;;;7.72;3.88;;;;;;;5.97;100.00;99162.06;10580570;28;20053;-68
2022/11/22 09:37:33;;;;;;;10.57;4.68;;;;;;;6.01;100.00;99155.22;10581736;28;20127;-68
2022/11/22 09:42:55;;;;;;;6.43;3.63;;;;;;;6.16;100.00;99181.81;10581029;28;20027;-69
2022/11/22 09:48:03;;;;;;;3.85;2.88;;;;;;;6.16;100.00;99165.69;10565335;28;20027;-69
2022/11/22 09:53:18;;;;;;;10.80;3.58;;;;;;;6.27;100.00;99159.69;10565589;28;20086;-68
2022/11/22 09:58:50;;;;;;;7.25;3.95;;;;;;;6.19;100.00;99166.13;10548344;28;20078;-68
2022/11/22 10:03:50;;;;;;;4.78;3.80;;;;;;;6.22;100.00;99173.75;10564802;28;20028;-68
2022/11/22 10:08:56;;;;;;;5.13;3.28;;;;;;;6.22;100.00;99179.13;10581223;28;20077;-68
2022/11/22 10:13:59;;;;;;;6.15;2.58;;;;;;;6.27;100.00;99173.13;10578906;28;20058;-68
2022/11/22 10:19:33;;;;;;;4.07;3.53;;;;;;;6.27;100.00;99167.75;10579982;28;20114;-68
2022/11/22 10:24:33;;;;;;;6.80;3.88;;;;;;;6.43;100.00;99163.75;10554509;28;20054;-68
2022/11/22 10:29:35;;;;;;;14.45;3.05;;;;;;;6.49;100.00;99161.03;10580633;28;20082;-68
2022/11/22 10:34:48;;;;;;;5.03;4.18;;;;;;;6.40;100.00;99164.19;10578827;28;20080;-67
2022/11/22 10:39:59;;;;;;;3.47;3.17;;;;;;;6.35;100.00;99155.91;10579999;28;20027;-68
2022/11/22 10:45:33;;;;;;;5.65;2.60;;;;;;;6.37;100.00;99165.41;10579124;28;20126;-67
2022/11/22 10:50:39;;;;;;;5.32;3.40;;;;;;;6.37;100.00;99153.84;10559493;28;20040;-68
2022/11/22 10:55:41;;;;;;;4.00;3.63;;;;;;;6.57;100.00;99145.69;10578392;28;20055;-68
2022/11/22 11:00:47;;;;;;;8.10;4.07;;;;;;;6.46;100.00;99139.13;10583956;28;20043;-68
2022/11/22 11:06:09;;;;;;;4.03;3.73;;;;;;;6.47;100.00;99132.69;10587797;28;20191;-68
2022/11/22 11:11:14;;;;;;;3.20;2.85;;;;;;;6.51;100.00;99134.75;10568849;28;20403;-68
2022/11/22 11:16:17;;;;;;;6.30;3.13;;;;;;;6.53;100.00;99131.84;10587371;28;20031;-68
2022/11/22 11:21:17;;;;;;;7.85;3.25;;;;;;;6.54;100.00;99138.91;10586598;28;20035;-68
2022/11/22 11:26:24;;;;;;;3.08;2.78;;;;;;;6.65;100.00;99132.81;10586383;28;20032;-68
2022/11/22 11:31:27;;;;;;;8.15;2.90;;;;;;;6.70;100.00;99124.94;10586549;28;20024;-68
2022/11/22 11:36:27;;;;;;;14.18;3.67;;;;;;;6.69;100.00;99123.28;10568862;28;20115;-68
2022/11/22 11:41:32;;;;;;;13.48;3.05;;;;;;;6.75;100.00;99108.13;10586730;28;20584;-69
2022/11/22 11:46:35;;;;;;;7.53;3.08;;;;;;;6.69;100.00;99106.31;10585568;28;20028;-69
2022/11/22 11:51:39;;;;;;;3.45;3.13;;;;;;;6.84;100.00;99103.34;10586444;28;20028;-68
2022/11/22 11:56:44;;;;;;;7.30;4.03;;;;;;;6.84;100.00;99116.78;10567526;28;20096;-68
2022/11/22 12:01:53;;;;;;;2.88;2.50;;;;;;;6.98;100.00;99119.16;10585077;28;20024;-68
2022/11/22 12:06:55;;;;;;;6.07;2.67;;;;;;;7.09;100.00;99111.44;10550686;28;20028;-68
2022/11/22 12:11:57;;;;;;;5.45;4.47;;;;;;;7.04;100.00;99100.50;10584526;28;20481;-68
2022/11/22 12:17:00;;;;;;;10.88;2.83;;;;;;;7.06;100.00;99101.94;10566945;28;20452;-68
2022/11/22 12:22:13;;;;;;;13.00;4.35;;;;;;;6.97;100.00;99100.53;10567391;28;20043;-68
2022/11/22 12:27:13;;;;;;;3.95;3.38;;;;;;;6.95;100.00;99108.00;10566960;28;20463;-68
2022/11/22 12:32:24;;;;;;;10.07;2.88;;;;;;;7.05;100.00;99115.59;10582250;28;20028;-68
2022/11/22 12:37:28;;;;;;;5.07;2.95;;;;;;;7.12;100.00;99119.06;10566793;28;20126;-68
2022/11/22 12:42:31;;;;;;;7.10;3.85;;;;;;;7.12;100.00;99111.81;10583332;28;20036;-68
2022/11/22 12:47:36;;;;;;;2.13;2.03;;;;;;;7.04;100.00;99119.34;10566874;28;20031;-68
2022/11/22 12:52:57;;;;;;;8.13;3.00;;;;;;;6.98;100.00;99126.41;10566605;28;20379;-68
2022/11/22 12:58:13;;;;;;;2.67;2.47;;;;;;;7.04;100.00;99106.69;10538794;28;20477;-67
2022/11/22 13:03:15;;;;;;;5.07;3.77;;;;;;;6.97;100.00;99106.75;10540628;28;20474;-67
2022/11/22 13:08:27;;;;;;;8.57;2.63;;;;;;;7.07;100.00;99125.09;10539805;28;20357;-68
2022/11/22 13:13:34;;;;;;;3.67;3.17;;;;;;;7.00;100.00;99129.72;10541184;28;20070;-68
2022/11/22 13:18:55;;;;;;;6.75;3.97;;;;;;;7.05;100.00;99119.13;10555849;28;20035;-70
2022/11/22 13:24:01;;;;;;;6.13;2.67;;;;;;;7.14;100.00;99112.41;10539765;28;20133;-70
2022/11/22 13:29:12;;;;;;;6.85;3.67;;;;;;;7.25;100.00;99107.38;10541344;28;20090;-68
2022/11/22 13:34:23;;;;;;;7.90;2.95;;;;;;;7.34;100.00;99106.03;10555955;28;20419;-68
2022/11/22 13:39:24;;;;;;;6.90;3.25;;;;;;;7.22;100.00;99103.25;10555027;28;20447;-70
2022/11/22 13:44:37;;;;;;;4.13;3.67;;;;;;;7.21;100.00;99099.75;10554104;28;20032;-71
2022/11/22 13:49:43;;;;;;;3.33;3.13;;;;;;;7.18;100.00;99110.94;10555385;28;20379;-69
2022/11/22 13:54:46;;;;;;;2.63;2.42;;;;;;;7.17;100.00;99117.34;10557050;28;20120;-68
2022/11/22 14:00:13;;;;;;;3.42;2.63;;;;;;;7.14;100.00;99107.03;10582210;28;20031;-69
2022/11/22 14:05:19;;;;;;;5.82;2.88;;;;;;;7.15;100.00;99105.19;10580063;28;20108;-68
2022/11/22 14:10:51;;;;;;;3.28;2.55;;;;;;;7.20;100.00;99105.34;10581612;28;20031;-69
2022/11/22 14:15:57;;;;;;;3.95;2.50;;;;;;;7.10;100.00;99119.28;10558033;28;20036;-68
2022/11/22 14:21:03;;;;;;;2.97;2.63;;;;;;;7.08;100.00;99115.97;10580241;28;20118;-70
2022/11/22 14:26:28;;;;;;;3.47;2.80;;;;;;;7.08;100.00;99115.16;10581090;28;20577;-70
2022/11/22 14:31:30;;;;;;;9.43;3.17;;;;;;;7.06;100.00;99110.00;10580206;28;20047;-69
2022/11/22 14:36:31;;;;;;;6.93;2.97;;;;;;;7.08;100.00;99101.69;10585575;28;20027;-68
2022/11/22 14:41:41;;;;;;;7.05;3.05;;;;;;;7.09;100.00;99111.44;10588057;28;20035;-68
2022/11/22 14:46:46;;;;;;;3.83;2.70;;;;;;;7.08;100.00;99102.50;10589089;28;20032;-68
2022/11/22 14:51:51;;;;;;;3.08;2.78;;;;;;;7.08;100.00;99107.06;10587958;28;20038;-68
2022/11/22 14:56:51;;;;;;;4.53;2.70;;;;;;;7.04;100.00;99106.69;10570360;28;20150;-68
2022/11/22 15:02:01;;;;;;;8.30;2.85;;;;;;;7.06;100.00;99109.19;10586900;28;20088;-68
2022/11/22 15:07:20;;;;;;;8.65;3.92;;;;;;;7.01;100.00;99104.44;10587107;28;20525;-68
2022/11/22 15:12:29;;;;;;;4.32;3.75;;;;;;;7.08;100.00;99097.13;10587943;28;20379;-68
2022/11/22 15:17:30;;;;;;;4.90;2.72;;;;;;;7.11;100.00;99099.38;10569223;28;20031;-69
2022/11/22 15:22:30;;;;;;;4.93;2.83;;;;;;;7.15;100.00;99115.94;10568098;28;20035;-68
2022/11/22 15:27:32;;;;;;;2.42;2.20;;;;;;;7.08;100.00;99128.59;10587551;28;20028;-68
2022/11/22 15:32:32;;;;;;;3.83;3.00;;;;;;;6.93;100.00;99120.88;10588431;28;20031;-69
2022/11/22 15:38:08;;;;;;;4.43;3.70;;;;;;;6.93;100.00;99132.44;10568218;28;20360;-69
2022/11/22 15:43:13;;;;;;;4.05;3.70;;;;;;;6.94;100.00;99123.31;10587152;28;20122;-68
2022/11/22 15:48:15;;;;;;;4.05;3.47;;;;;;;6.88;100.00;99118.00;10567320;28;20036;-68
2022/11/22 15:53:18;;;;;;;3.28;3.05;;;;;;;6.88;100.00;99126.88;10585089;28;20035;-68
2022/11/22 15:58:18;;;;;;;3.92;3.63;;;;;;;6.92;100.00;99128.13;10584704;28;20043;-68
2022/11/22 16:03:21;;;;;;;4.13;3.45;;;;;;;6.94;100.00;99127.88;10568902;28;20116;-68
2022/11/22 16:08:22;;;;;;;4.45;4.05;;;;;;;6.88;100.00;99120.69;10551508;28;20118;-68
2022/11/22 16:13:27;;;;;;;4.80;3.83;;;;;;;6.83;100.00;99117.81;10585654;28;20463;-68
2022/11/22 16:18:27;;;;;;;4.70;4.30;;;;;;;6.71;100.00;99133.84;10585278;28;20439;-68
2022/11/22 16:23:29;;;;;;;9.90;4.90;;;;;;;6.72;100.00;99125.53;10585259;28;20039;-68
2022/11/22 16:28:31;;;;;;;10.43;5.28;;;;;;;6.72;100.00;99120.16;10586861;28;20072;-68
2022/11/22 16:33:31;;;;;;;5.80;5.00;;;;;;;6.71;100.00;99131.97;10566263;28;20106;-68
2022/11/22 16:38:32;;;;;;;6.25;4.57;;;;;;;6.78;100.00;99133.78;10585466;28;20348;-68
2022/11/22 16:43:33;;;;;;;18.55;5.93;;;;;;;6.87;100.00;99127.13;10583808;28;20031;-68
2022/11/22 16:48:33;;;;;;;7.60;4.55;;;;;;;6.84;100.00;99127.53;10566474;28;20032;-68
2022/11/22 16:53:44;;;;;;;6.13;5.53;;;;;;;6.90;100.00;99140.13;10584006;28;20087;-68
2022/11/22 16:58:46;;;;;;;17.42;6.15;;;;;;;6.97;100.00;99155.19;10582595;28;20051;-68
2022/11/22 17:03:47;;;;;;;6.80;6.03;;;;;;;7.04;100.00;99147.06;10584786;28;20480;-68
2022/11/22 17:08:48;;;;;;;5.05;4.55;;;;;;;7.03;100.00;99156.19;10582891;28;20043;-68
2022/11/22 17:13:49;;;;;;;7.72;5.93;;;;;;;7.09;100.00;99159.88;10582423;28;20036;-68
2022/11/22 17:18:50;;;;;;;5.38;4.88;;;;;;;7.16;100.00;99158.78;10564198;28;20039;-68
2022/11/22 17:23:50;;;;;;;12.98;5.45;;;;;;;7.22;100.00;99152.53;10584066;28;20043;-68
2022/11/22 17:28:50;;;;;;;5.47;4.97;;;;;;;7.28;100.00;99155.41;10564395;28;20081;-68
2022/11/22 17:33:52;;;;;;;6.85;5.40;;;;;;;7.35;100.00;99167.75;10582151;28;20054;-68
2022/11/22 17:38:52;;;;;;;6.50;4.63;;;;;;;7.39;100.00;99166.28;10564130;28;20027;-68
2022/11/22 17:43:53;;;;;;;7.30;4.60;;;;;;;7.45;100.00;99154.63;10581029;28;20449;-68
2022/11/22 17:48:58;;;;;;;5.70;4.53;;;;;;;7.54;100.00;99175.91;10581098;28;20043;-68
2022/11/22 17:53:58;;;;;;;4.90;4.03;;;;;;;7.62;100.00;99176.44;10582041;28;20417;-68
2022/11/22 17:58:59;;;;;;;4.05;3.13;;;;;;;7.69;100.00;99185.31;10582079;28;20108;-68
2022/11/22 18:03:59;;;;;;;25.23;4.15;;;;;;;7.74;100.00;99191.88;10580335;28;20113;-68
2022/11/22 18:09:00;;;;;;;3.97;3.63;;;;;;;7.83;100.00;99185.19;10568018;28;20036;-68
2022/11/22 18:14:00;;;;;;;6.97;4.18;;;;;;;7.88;100.00;99185.31;10573251;28;20411;-68
2022/11/22 18:19:01;;;;;;;6.50;3.97;;;;;;;7.93;100.00;99202.47;10589659;28;20080;-68
2022/11/22 18:24:01;;;;;;;6.50;3.97;;;;;;;7.91;100.00;99188.41;10590100;28;20038;-68
2022/11/22 18:29:01;;;;;;;8.82;3.55;;;;;;;8.03;100.00;99179.59;10589959;28;20031;-68
2022/11/22 18:34:02;;;;;;;10.57;5.05;;;;;;;8.07;100.00;99196.94;10571382;28;20043;-68
2022/11/22 18:39:03;;;;;;;5.95;3.03;;;;;;;8.08;100.00;99193.22;10589067;28;20523;-68
2022/11/22 18:44:03;;;;;;;3.88;3.25;;;;;;;8.19;100.00;99195.16;10590381;28;20126;-68
2022/11/22 18:49:04;;;;;;;8.90;3.20;;;;;;;8.18;100.00;99200.81;10589217;28;20122;-68
2022/11/22 18:54:04;;;;;;;7.90;3.13;;;;;;;8.17;100.00;99208.06;10570725;28;20038;-68
2022/11/22 18:59:05;;;;;;;2.67;2.47;;;;;;;8.18;100.00;99212.41;10572272;28;20079;-68
2022/11/22 19:04:06;;;;;;;7.20;3.78;;;;;;;8.18;100.00;99217.81;10571506;28;20047;-68
2022/11/22 19:09:06;;;;;;;8.43;3.72;;;;;;;8.18;100.00;99220.50;10588345;28;20479;-68
2022/11/22 19:14:07;;;;;;;10.00;4.28;;;;;;;8.24;100.00;99221.47;10569816;28;20031;-68
2022/11/22 19:19:09;;;;;;;7.45;3.22;;;;;;;8.29;100.00;99221.63;10586728;28;20042;-68
2022/11/22 19:24:09;;;;;;;9.02;3.08;;;;;;;8.30;100.00;99231.38;10569742;28;20081;-68
2022/11/22 19:29:10;;;;;;;10.30;4.78;;;;;;;8.38;100.00;99228.41;10587759;28;20467;-68
2022/11/22 19:34:10;;;;;;;7.50;4.13;;;;;;;8.41;100.00;99227.94;10568191;28;20074;-68
2022/11/22 19:39:12;;;;;;;12.02;5.35;;;;;;;8.43;100.00;99220.47;10567518;28;20032;-68
2022/11/22 19:44:12;;;;;;;9.30;4.53;;;;;;;8.43;100.00;99222.34;10568568;28;20055;-68
2022/11/22 19:49:13;;;;;;;8.55;4.40;;;;;;;8.48;100.00;99228.69;10585778;28;20428;-68
2022/11/22 19:54:13;;;;;;;11.52;5.10;;;;;;;8.46;100.00;99227.28;10569561;28;20085;-69
2022/11/22 19:59:15;;;;;;;5.60;4.05;;;;;;;8.50;100.00;99231.19;10585252;28;20397;-69
2022/11/22 20:04:17;;;;;;;10.43;3.95;;;;;;;8.51;100.00;99230.94;10584865;28;20062;-69
2022/11/22 20:09:17;;;;;;;6.70;4.45;;;;;;;8.61;100.00;99241.22;10567623;28;20027;-69
2022/11/22 20:14:18;;;;;;;16.25;5.88;;;;;;;8.56;100.00;99241.91;10583594;28;20028;-69
2022/11/22 20:19:18;;;;;;;9.52;4.35;;;;;;;8.54;100.00;99241.28;10584977;28;20533;-69
2022/11/22 20:24:19;;;;;;;10.27;4.85;;;;;;;8.44;100.00;99242.88;10584540;28;20378;-68
2022/11/22 20:29:21;;;;;;;9.60;4.95;;;;;;;8.36;100.00;99250.19;10584286;28;20080;-69
2022/11/22 20:34:22;;;;;;;9.85;4.70;;;;;;;8.30;100.00;99255.66;10583594;28;20455;-69
2022/11/22 20:39:22;;;;;;;16.92;5.95;;;;;;;8.36;100.00;99268.25;10566371;28;20059;-69
2022/11/22 20:44:23;;;;;;;15.68;5.22;;;;;;;8.37;100.00;99273.41;10585284;28;20460;-68
2022/11/22 20:49:26;;;;;;;19.25;5.63;;;;;;;8.42;100.00;99274.63;10566744;28;20478;-68
2022/11/22 20:54:26;;;;;;;11.38;6.68;;;;;;;8.45;100.00;99275.00;10584790;28;20040;-71
2022/11/22 20:59:27;;;;;;;4.97;4.47;;;;;;;8.46;100.00;99275.84;10584834;28;20059;-69
2022/11/22 21:04:27;;;;;;;12.38;5.80;;;;;;;8.44;100.00;99280.63;10565098;28;20181;-69
2022/11/22 21:09:28;;;;;;;13.60;6.75;;;;;;;8.39;100.00;99283.97;10583141;28;20035;-68
2022/11/22 21:14:28;;;;;;;10.60;6.28;;;;;;;8.37;100.00;99294.16;10584629;28;20086;-68
2022/11/22 21:19:28;;;;;;;5.25;4.72;;;;;;;8.38;100.00;99290.44;10582786;28;20436;-68
2022/11/22 21:24:29;;;;;;;12.52;7.50;;;;;;;8.32;100.00;99294.81;10582604;28;20039;-68
2022/11/22 21:29:29;;;;;;;9.23;7.65;;;;;;;8.37;100.00;99297.69;10583025;28;20032;-68
2022/11/22 21:34:30;;;;;;;11.50;6.25;;;;;;;8.40;100.00;99306.41;10582620;28;20031;-68
2022/11/22 21:39:30;;;;;;;8.55;6.47;;;;;;;8.37;100.00;99316.56;10582492;28;20039;-68
2022/11/22 21:44:32;;;;;;;19.42;9.80;;;;;;;8.42;100.00;99318.59;10582127;28;20436;-67
2022/11/22 21:49:33;;;;;;;19.27;10.80;;;;;;;8.43;100.00;99333.75;10564116;28;20486;-68
2022/11/22 21:54:33;;;;;;;24.88;8.02;;;;;;;8.44;100.00;99337.28;10582761;28;20047;-68
2022/11/22 21:59:34;;;;;;;14.15;9.82;;;;;;;8.44;100.00;99339.97;10581256;28;20055;-68
2022/11/22 22:04:34;;;;;;;25.50;11.18;;;;;;;8.42;100.00;99340.19;10562919;28;20088;-68
2022/11/22 22:09:35;;;;;;;23.40;9.13;;;;;;;8.30;100.00;99344.66;10564356;28;20132;-68
2022/11/22 22:14:35;;;;;;;18.88;10.13;;;;;;;8.11;100.00;99344.59;10581864;28;20043;-69
2022/11/22 22:19:38;;;;;;;14.90;9.98;;;;;;;8.01;100.00;99344.25;10582943;28;20028;-68
2022/11/22 22:24:38;;;;;;;17.95;8.40;;;;;;;8.01;100.00;99343.41;10581551;28;20031;-68
2022/11/22 22:29:39;;;;;;;18.60;11.55;;;;;;;8.07;100.00;99351.47;10565590;28;20039;-68
2022/11/22 22:34:39;;;;;;;14.15;12.52;;;;;;;8.09;100.00;99365.53;10580803;28;20485;-68
2022/11/22 22:39:39;;;;;;;14.82;11.90;;;;;;;8.13;100.00;99363.22;10562757;28;20092;-68
2022/11/22 22:44:40;;;;;;;24.33;12.90;;;;;;;8.18;100.00;99365.28;10581212;28;20051;-68
2022/11/22 22:49:40;;;;;;;16.20;11.20;;;;;;;8.09;100.00;99373.63;10580350;28;20042;-68
2022/11/22 22:54:40;;;;;;;15.70;10.75;;;;;;;7.94;100.00;99381.19;10579684;28;20115;-68
2022/11/22 22:59:41;;;;;;;15.30;10.07;;;;;;;7.97;100.00;99386.16;10587176;28;20051;-68
2022/11/22 23:04:41;;;;;;;23.95;10.52;;;;;;;7.92;100.00;99392.22;10587870;28;20071;-68
2022/11/22 23:09:42;;;;;;;17.35;12.00;;;;;;;7.86;100.00;99403.03;10588705;28;20036;-68
2022/11/22 23:14:42;;;;;;;18.50;10.90;;;;;;;7.67;100.00;99402.91;10589462;28;20036;-68
2022/11/22 23:19:43;;;;;;;20.75;11.48;;;;;;;7.73;100.00;99413.88;10569951;28;20039;-68
2022/11/22 23:24:43;;;;;;;16.65;9.93;;;;;;;7.84;100.00;99408.63;10589125;28;20036;-68
2022/11/22 23:29:43;;;;;;;10.32;8.95;;;;;;;7.97;100.00;99417.69;10571414;28;20475;-68
2022/11/22 23:34:44;;;;;;;23.48;11.02;;;;;;;8.03;100.00;99411.41;10587610;28;20391;-68
2022/11/22 23:39:44;;;;;;;18.90;10.13;;;;;;;7.92;100.00;99419.16;10587346;28;20097;-68